EGJA/ACI METAR and TAF weather

Enter ICAO airport designator
Station Type Date Time Source
EGJA METAR 2021/05/17 17:20 UTC NOAA

EGJA 171720Z 26020KT 9999 SCT008 12/10 Q1012


Station Type Date Time Source
EGJA Decoded METAR 2021/05/17 17:20 UTC NOAA

Alderney / Channel Island, United Kingdom (EGJA) 49-43N 002-12W
May 17, 2021 - 01:20 PM EDT / 2021.05.17 1720 UTC
Wind: from the W (260 degrees) at 23 MPH (20 KT):0
Visibility: greater than 7 mile(s):0
Sky conditions: partly cloudy
Temperature: 53 F (12 C)
Dew Point: 50 F (10 C)
Relative Humidity: 87%
Pressure (altimeter): 29.88 in. Hg (1012 hPa)
ob: EGJA 171720Z 26020KT 9999 SCT008 12/10 Q1012
cycle: 17

Station Type Date Time Source
EGJA TAF UTC NOAA

Error!

Example: see airport list